sensor_id;sensor_type;location;lat;lon;timestamp;P1;durP1;ratioP1;P2;durP2;ratioP2
35372;SDS011;21476;51.652;7.852;2023-02-18T00:01:01;41.13;;;27.92;;
35372;SDS011;21476;51.652;7.852;2023-02-18T00:03:29;42.58;;;28.88;;
35372;SDS011;21476;51.652;7.852;2023-02-18T00:05:55;36.20;;;26.75;;
35372;SDS011;21476;51.652;7.852;2023-02-18T00:08:21;40.35;;;28.10;;
35372;SDS011;21476;51.652;7.852;2023-02-18T00:10:47;40.60;;;28.95;;
35372;SDS011;21476;51.652;7.852;2023-02-18T00:13:12;45.75;;;28.65;;
35372;SDS011;21476;51.652;7.852;2023-02-18T00:15:38;42.92;;;29.38;;
35372;SDS011;21476;51.652;7.852;2023-02-18T00:18:04;35.58;;;27.05;;
35372;SDS011;21476;51.652;7.852;2023-02-18T00:20:31;43.47;;;29.10;;
35372;SDS011;21476;51.652;7.852;2023-02-18T00:23:00;39.35;;;30.02;;
35372;SDS011;21476;51.652;7.852;2023-02-18T00:25:26;40.97;;;28.67;;
35372;SDS011;21476;51.652;7.852;2023-02-18T00:27:53;44.50;;;28.88;;
35372;SDS011;21476;51.652;7.852;2023-02-18T00:30:19;43.90;;;31.13;;
35372;SDS011;21476;51.652;7.852;2023-02-18T00:32:44;42.80;;;30.95;;
35372;SDS011;21476;51.652;7.852;2023-02-18T00:35:10;45.85;;;32.97;;
35372;SDS011;21476;51.652;7.852;2023-02-18T00:37:36;46.75;;;33.78;;
35372;SDS011;21476;51.652;7.852;2023-02-18T00:40:01;46.75;;;34.22;;
35372;SDS011;21476;51.652;7.852;2023-02-18T00:42:28;53.03;;;35.33;;
35372;SDS011;21476;51.652;7.852;2023-02-18T00:44:53;48.35;;;34.58;;
35372;SDS011;21476;51.652;7.852;2023-02-18T00:47:19;54.58;;;36.40;;
35372;SDS011;21476;51.652;7.852;2023-02-18T00:49:44;44.30;;;32.67;;
35372;SDS011;21476;51.652;7.852;2023-02-18T00:52:11;46.75;;;33.28;;
35372;SDS011;21476;51.652;7.852;2023-02-18T00:54:37;43.35;;;31.67;;
35372;SDS011;21476;51.652;7.852;2023-02-18T00:57:02;44.30;;;31.13;;
35372;SDS011;21476;51.652;7.852;2023-02-18T00:59:28;43.58;;;29.80;;
35372;SDS011;21476;51.652;7.852;2023-02-18T01:01:53;39.13;;;28.80;;
35372;SDS011;21476;51.652;7.852;2023-02-18T01:04:19;42.65;;;29.77;;
35372;SDS011;21476;51.652;7.852;2023-02-18T01:06:45;42.90;;;28.33;;
35372;SDS011;21476;51.652;7.852;2023-02-18T01:09:10;44.35;;;28.58;;
35372;SDS011;21476;51.652;7.852;2023-02-18T01:11:36;38.92;;;27.75;;
35372;SDS011;21476;51.652;7.852;2023-02-18T01:14:01;42.40;;;27.63;;
35372;SDS011;21476;51.652;7.852;2023-02-18T01:16:27;38.80;;;27.35;;
35372;SDS011;21476;51.652;7.852;2023-02-18T01:18:53;39.03;;;28.08;;
35372;SDS011;21476;51.652;7.852;2023-02-18T01:21:18;44.15;;;29.13;;
35372;SDS011;21476;51.652;7.852;2023-02-18T01:23:44;49.42;;;34.20;;
35372;SDS011;21476;51.652;7.852;2023-02-18T01:26:10;55.45;;;36.72;;
35372;SDS011;21476;51.652;7.852;2023-02-18T01:28:36;61.15;;;40.70;;
35372;SDS011;21476;51.652;7.852;2023-02-18T01:31:06;73.88;;;45.47;;
35372;SDS011;21476;51.652;7.852;2023-02-18T01:33:32;82.53;;;50.17;;
35372;SDS011;21476;51.652;7.852;2023-02-18T01:35:58;95.20;;;55.28;;
35372;SDS011;21476;51.652;7.852;2023-02-18T01:38:24;92.78;;;53.80;;
35372;SDS011;21476;51.652;7.852;2023-02-18T01:40:50;95.40;;;55.47;;
35372;SDS011;21476;51.652;7.852;2023-02-18T01:43:17;93.85;;;53.60;;
35372;SDS011;21476;51.652;7.852;2023-02-18T01:45:49;87.18;;;53.42;;
35372;SDS011;21476;51.652;7.852;2023-02-18T01:48:29;91.53;;;52.58;;
35372;SDS011;21476;51.652;7.852;2023-02-18T01:51:07;88.25;;;51.03;;
35372;SDS011;21476;51.652;7.852;2023-02-18T01:53:44;85.57;;;51.10;;
35372;SDS011;21476;51.652;7.852;2023-02-18T01:56:24;82.72;;;49.50;;
35372;SDS011;21476;51.652;7.852;2023-02-18T01:59:01;80.85;;;48.33;;
35372;SDS011;21476;51.652;7.852;2023-02-18T02:01:31;80.50;;;48.28;;
35372;SDS011;21476;51.652;7.852;2023-02-18T02:03:57;75.45;;;46.40;;
35372;SDS011;21476;51.652;7.852;2023-02-18T02:06:24;78.20;;;47.78;;
35372;SDS011;21476;51.652;7.852;2023-02-18T02:08:50;76.93;;;46.55;;
35372;SDS011;21476;51.652;7.852;2023-02-18T02:11:34;71.25;;;45.08;;
35372;SDS011;21476;51.652;7.852;2023-02-18T02:17:10;73.68;;;46.70;;
35372;SDS011;21476;51.652;7.852;2023-02-18T02:36:30;80.78;;;47.92;;
35372;SDS011;21476;51.652;7.852;2023-02-18T02:41:51;88.63;;;50.40;;
35372;SDS011;21476;51.652;7.852;2023-02-18T02:44:29;90.22;;;51.38;;
35372;SDS011;21476;51.652;7.852;2023-02-18T02:47:10;98.65;;;54.15;;
35372;SDS011;21476;51.652;7.852;2023-02-18T02:49:56;82.78;;;51.13;;
35372;SDS011;21476;51.652;7.852;2023-02-18T02:52:31;91.05;;;52.13;;
35372;SDS011;21476;51.652;7.852;2023-02-18T02:55:04;85.18;;;51.10;;
35372;SDS011;21476;51.652;7.852;2023-02-18T03:00:04;91.38;;;53.78;;
35372;SDS011;21476;51.652;7.852;2023-02-18T03:02:48;94.60;;;53.95;;
35372;SDS011;21476;51.652;7.852;2023-02-18T03:08:03;98.50;;;52.72;;
35372;SDS011;21476;51.652;7.852;2023-02-18T03:10:50;99.75;;;52.47;;
35372;SDS011;21476;51.652;7.852;2023-02-18T03:18:46;88.13;;;45.92;;
35372;SDS011;21476;51.652;7.852;2023-02-18T03:21:32;84.93;;;46.17;;
35372;SDS011;21476;51.652;7.852;2023-02-18T03:24:12;78.40;;;43.80;;
35372;SDS011;21476;51.652;7.852;2023-02-18T03:26:59;74.13;;;40.72;;
35372;SDS011;21476;51.652;7.852;2023-02-18T03:29:33;77.32;;;42.97;;
35372;SDS011;21476;51.652;7.852;2023-02-18T03:32:01;75.35;;;41.90;;
35372;SDS011;21476;51.652;7.852;2023-02-18T03:34:30;68.50;;;39.40;;
35372;SDS011;21476;51.652;7.852;2023-02-18T03:36:59;68.00;;;39.88;;
35372;SDS011;21476;51.652;7.852;2023-02-18T03:39:27;67.10;;;39.95;;
35372;SDS011;21476;51.652;7.852;2023-02-18T03:41:55;63.92;;;38.90;;
35372;SDS011;21476;51.652;7.852;2023-02-18T03:44:22;65.35;;;37.45;;
35372;SDS011;21476;51.652;7.852;2023-02-18T03:46:49;57.63;;;35.30;;
35372;SDS011;21476;51.652;7.852;2023-02-18T03:49:15;62.10;;;36.05;;
35372;SDS011;21476;51.652;7.852;2023-02-18T03:51:41;59.95;;;36.20;;
35372;SDS011;21476;51.652;7.852;2023-02-18T03:54:07;58.88;;;33.47;;
35372;SDS011;21476;51.652;7.852;2023-02-18T03:56:34;55.65;;;33.60;;
35372;SDS011;21476;51.652;7.852;2023-02-18T03:59:01;58.72;;;33.63;;
35372;SDS011;21476;51.652;7.852;2023-02-18T04:01:27;56.72;;;31.27;;
35372;SDS011;21476;51.652;7.852;2023-02-18T04:03:53;55.13;;;29.98;;
35372;SDS011;21476;51.652;7.852;2023-02-18T04:06:19;50.90;;;28.90;;
35372;SDS011;21476;51.652;7.852;2023-02-18T04:08:46;46.38;;;26.75;;
35372;SDS011;21476;51.652;7.852;2023-02-18T04:11:12;46.58;;;26.73;;
35372;SDS011;21476;51.652;7.852;2023-02-18T04:13:38;41.35;;;24.98;;
35372;SDS011;21476;51.652;7.852;2023-02-18T04:16:04;44.78;;;24.13;;
35372;SDS011;21476;51.652;7.852;2023-02-18T04:18:30;37.78;;;23.00;;
35372;SDS011;21476;51.652;7.852;2023-02-18T04:20:55;36.75;;;22.65;;
35372;SDS011;21476;51.652;7.852;2023-02-18T04:23:21;38.47;;;21.13;;
35372;SDS011;21476;51.652;7.852;2023-02-18T04:25:47;32.95;;;20.75;;
35372;SDS011;21476;51.652;7.852;2023-02-18T04:28:13;35.90;;;19.80;;
35372;SDS011;21476;51.652;7.852;2023-02-18T04:30:40;36.58;;;20.83;;
35372;SDS011;21476;51.652;7.852;2023-02-18T04:33:07;31.85;;;19.30;;
35372;SDS011;21476;51.652;7.852;2023-02-18T04:35:32;30.00;;;18.20;;
35372;SDS011;21476;51.652;7.852;2023-02-18T04:37:58;27.30;;;17.90;;
35372;SDS011;21476;51.652;7.852;2023-02-18T04:40:24;34.80;;;20.98;;
35372;SDS011;21476;51.652;7.852;2023-02-18T04:42:53;32.42;;;18.02;;
35372;SDS011;21476;51.652;7.852;2023-02-18T04:45:19;28.65;;;18.00;;
35372;SDS011;21476;51.652;7.852;2023-02-18T04:47:44;29.15;;;17.65;;
35372;SDS011;21476;51.652;7.852;2023-02-18T04:50:10;28.55;;;16.85;;
35372;SDS011;21476;51.652;7.852;2023-02-18T04:52:36;30.15;;;17.13;;
35372;SDS011;21476;51.652;7.852;2023-02-18T04:55:01;31.02;;;18.20;;
35372;SDS011;21476;51.652;7.852;2023-02-18T04:57:27;30.58;;;18.58;;
35372;SDS011;21476;51.652;7.852;2023-02-18T04:59:53;28.50;;;16.10;;
35372;SDS011;21476;51.652;7.852;2023-02-18T05:02:18;25.63;;;15.77;;
35372;SDS011;21476;51.652;7.852;2023-02-18T05:04:44;29.55;;;15.70;;
35372;SDS011;21476;51.652;7.852;2023-02-18T05:07:10;30.95;;;16.10;;
35372;SDS011;21476;51.652;7.852;2023-02-18T05:09:35;25.05;;;15.43;;
35372;SDS011;21476;51.652;7.852;2023-02-18T05:12:01;28.00;;;16.13;;
35372;SDS011;21476;51.652;7.852;2023-02-18T05:14:27;27.45;;;15.35;;
35372;SDS011;21476;51.652;7.852;2023-02-18T05:16:53;27.80;;;15.35;;
35372;SDS011;21476;51.652;7.852;2023-02-18T05:19:18;26.20;;;14.90;;
35372;SDS011;21476;51.652;7.852;2023-02-18T05:21:44;22.48;;;13.93;;
35372;SDS011;21476;51.652;7.852;2023-02-18T05:24:10;25.58;;;14.38;;
35372;SDS011;21476;51.652;7.852;2023-02-18T05:26:36;26.40;;;14.48;;
35372;SDS011;21476;51.652;7.852;2023-02-18T05:29:02;23.15;;;13.00;;
35372;SDS011;21476;51.652;7.852;2023-02-18T05:31:28;23.85;;;13.10;;
35372;SDS011;21476;51.652;7.852;2023-02-18T05:33:54;23.98;;;13.55;;
35372;SDS011;21476;51.652;7.852;2023-02-18T05:36:20;23.83;;;11.95;;
35372;SDS011;21476;51.652;7.852;2023-02-18T05:38:45;21.30;;;11.32;;
35372;SDS011;21476;51.652;7.852;2023-02-18T05:41:11;21.30;;;11.55;;
35372;SDS011;21476;51.652;7.852;2023-02-18T05:43:37;19.67;;;10.27;;
35372;SDS011;21476;51.652;7.852;2023-02-18T05:46:21;16.40;;;9.70;;
35372;SDS011;21476;51.652;7.852;2023-02-18T05:48:46;18.70;;;8.90;;
35372;SDS011;21476;51.652;7.852;2023-02-18T05:51:12;14.75;;;8.60;;
35372;SDS011;21476;51.652;7.852;2023-02-18T05:53:38;13.02;;;7.88;;
35372;SDS011;21476;51.652;7.852;2023-02-18T05:56:04;12.68;;;7.25;;
35372;SDS011;21476;51.652;7.852;2023-02-18T05:58:30;12.00;;;6.45;;
35372;SDS011;21476;51.652;7.852;2023-02-18T06:00:56;9.25;;;5.47;;
35372;SDS011;21476;51.652;7.852;2023-02-18T06:03:21;8.77;;;5.18;;
35372;SDS011;21476;51.652;7.852;2023-02-18T06:05:50;9.73;;;4.95;;
35372;SDS011;21476;51.652;7.852;2023-02-18T06:08:16;7.38;;;4.50;;
35372;SDS011;21476;51.652;7.852;2023-02-18T06:10:44;7.78;;;4.45;;
35372;SDS011;21476;51.652;7.852;2023-02-18T06:13:10;6.68;;;3.67;;
35372;SDS011;21476;51.652;7.852;2023-02-18T06:15:36;7.80;;;3.88;;
35372;SDS011;21476;51.652;7.852;2023-02-18T06:18:02;6.45;;;3.10;;
35372;SDS011;21476;51.652;7.852;2023-02-18T06:20:28;4.90;;;2.67;;
35372;SDS011;21476;51.652;7.852;2023-02-18T06:22:54;4.82;;;2.50;;
35372;SDS011;21476;51.652;7.852;2023-02-18T06:25:20;4.70;;;2.95;;
35372;SDS011;21476;51.652;7.852;2023-02-18T06:27:45;5.55;;;2.72;;
35372;SDS011;21476;51.652;7.852;2023-02-18T06:30:11;4.65;;;2.60;;
35372;SDS011;21476;51.652;7.852;2023-02-18T06:32:37;5.20;;;2.85;;
35372;SDS011;21476;51.652;7.852;2023-02-18T06:35:03;4.30;;;2.85;;
35372;SDS011;21476;51.652;7.852;2023-02-18T06:37:28;3.53;;;2.40;;
35372;SDS011;21476;51.652;7.852;2023-02-18T06:39:54;3.67;;;2.20;;
35372;SDS011;21476;51.652;7.852;2023-02-18T06:42:20;3.97;;;2.42;;
35372;SDS011;21476;51.652;7.852;2023-02-18T06:44:45;4.53;;;2.33;;
35372;SDS011;21476;51.652;7.852;2023-02-18T06:47:11;4.13;;;2.50;;
35372;SDS011;21476;51.652;7.852;2023-02-18T06:49:37;4.53;;;3.15;;
35372;SDS011;21476;51.652;7.852;2023-02-18T06:52:03;5.18;;;2.55;;
35372;SDS011;21476;51.652;7.852;2023-02-18T06:54:29;4.93;;;2.95;;
35372;SDS011;21476;51.652;7.852;2023-02-18T06:56:55;3.80;;;2.47;;
35372;SDS011;21476;51.652;7.852;2023-02-18T06:59:21;4.53;;;2.67;;
35372;SDS011;21476;51.652;7.852;2023-02-18T07:01:46;4.70;;;3.13;;
35372;SDS011;21476;51.652;7.852;2023-02-18T07:04:12;7.18;;;3.55;;
35372;SDS011;21476;51.652;7.852;2023-02-18T07:06:38;6.25;;;4.03;;
35372;SDS011;21476;51.652;7.852;2023-02-18T07:09:04;7.63;;;3.97;;
35372;SDS011;21476;51.652;7.852;2023-02-18T07:11:30;5.80;;;3.75;;
35372;SDS011;21476;51.652;7.852;2023-02-18T07:13:55;6.00;;;3.58;;
35372;SDS011;21476;51.652;7.852;2023-02-18T07:16:21;5.80;;;3.45;;
35372;SDS011;21476;51.652;7.852;2023-02-18T07:18:47;6.60;;;3.55;;
35372;SDS011;21476;51.652;7.852;2023-02-18T07:21:12;4.43;;;2.80;;
35372;SDS011;21476;51.652;7.852;2023-02-18T07:23:38;4.50;;;3.03;;
35372;SDS011;21476;51.652;7.852;2023-02-18T07:26:07;4.70;;;2.90;;
35372;SDS011;21476;51.652;7.852;2023-02-18T07:28:35;5.50;;;3.42;;
35372;SDS011;21476;51.652;7.852;2023-02-18T07:31:01;5.28;;;2.53;;
35372;SDS011;21476;51.652;7.852;2023-02-18T07:33:27;4.50;;;2.92;;
35372;SDS011;21476;51.652;7.852;2023-02-18T07:35:57;4.63;;;3.00;;
35372;SDS011;21476;51.652;7.852;2023-02-18T07:38:24;6.38;;;3.70;;
35372;SDS011;21476;51.652;7.852;2023-02-18T07:40:50;4.70;;;3.03;;
35372;SDS011;21476;51.652;7.852;2023-02-18T07:43:17;4.65;;;2.95;;
35372;SDS011;21476;51.652;7.852;2023-02-18T07:45:43;6.50;;;3.50;;
35372;SDS011;21476;51.652;7.852;2023-02-18T07:48:09;5.90;;;3.20;;
35372;SDS011;21476;51.652;7.852;2023-02-18T07:50:37;4.80;;;2.97;;
35372;SDS011;21476;51.652;7.852;2023-02-18T07:53:06;5.32;;;3.70;;
35372;SDS011;21476;51.652;7.852;2023-02-18T07:55:33;5.13;;;3.90;;
35372;SDS011;21476;51.652;7.852;2023-02-18T07:58:26;6.88;;;4.63;;
35372;SDS011;21476;51.652;7.852;2023-02-18T08:00:54;5.82;;;4.57;;
35372;SDS011;21476;51.652;7.852;2023-02-18T08:03:21;5.88;;;4.15;;
35372;SDS011;21476;51.652;7.852;2023-02-18T08:05:48;6.50;;;4.75;;
35372;SDS011;21476;51.652;7.852;2023-02-18T08:08:15;7.57;;;4.68;;
35372;SDS011;21476;51.652;7.852;2023-02-18T08:10:47;5.32;;;4.20;;
35372;SDS011;21476;51.652;7.852;2023-02-18T08:13:13;6.47;;;5.00;;
35372;SDS011;21476;51.652;7.852;2023-02-18T08:15:39;8.05;;;5.53;;
35372;SDS011;21476;51.652;7.852;2023-02-18T08:18:06;7.00;;;5.18;;
35372;SDS011;21476;51.652;7.852;2023-02-18T08:20:36;8.27;;;6.50;;
35372;SDS011;21476;51.652;7.852;2023-02-18T08:23:03;7.78;;;6.07;;
35372;SDS011;21476;51.652;7.852;2023-02-18T08:25:29;8.20;;;6.25;;
35372;SDS011;21476;51.652;7.852;2023-02-18T08:27:55;8.45;;;6.25;;
35372;SDS011;21476;51.652;7.852;2023-02-18T08:30:20;7.35;;;6.20;;
35372;SDS011;21476;51.652;7.852;2023-02-18T08:32:46;9.60;;;6.43;;
35372;SDS011;21476;51.652;7.852;2023-02-18T08:35:12;7.63;;;5.80;;
35372;SDS011;21476;51.652;7.852;2023-02-18T08:37:38;7.78;;;6.05;;
35372;SDS011;21476;51.652;7.852;2023-02-18T08:40:04;7.80;;;5.80;;
35372;SDS011;21476;51.652;7.852;2023-02-18T08:42:30;6.88;;;5.50;;
35372;SDS011;21476;51.652;7.852;2023-02-18T08:44:56;11.05;;;6.95;;
35372;SDS011;21476;51.652;7.852;2023-02-18T08:47:21;8.50;;;6.07;;
35372;SDS011;21476;51.652;7.852;2023-02-18T08:49:47;6.93;;;6.13;;
35372;SDS011;21476;51.652;7.852;2023-02-18T08:52:13;6.57;;;5.75;;
35372;SDS011;21476;51.652;7.852;2023-02-18T08:54:39;6.63;;;4.82;;
35372;SDS011;21476;51.652;7.852;2023-02-18T08:57:04;6.93;;;5.60;;
35372;SDS011;21476;51.652;7.852;2023-02-18T08:59:30;6.80;;;5.20;;
35372;SDS011;21476;51.652;7.852;2023-02-18T09:01:56;6.85;;;4.70;;
35372;SDS011;21476;51.652;7.852;2023-02-18T09:04:21;5.15;;;3.47;;
35372;SDS011;21476;51.652;7.852;2023-02-18T09:06:47;6.22;;;3.53;;
35372;SDS011;21476;51.652;7.852;2023-02-18T09:09:14;4.55;;;2.60;;
35372;SDS011;21476;51.652;7.852;2023-02-18T09:11:40;4.85;;;2.67;;
35372;SDS011;21476;51.652;7.852;2023-02-18T09:14:06;5.22;;;2.70;;
35372;SDS011;21476;51.652;7.852;2023-02-18T09:16:32;4.03;;;2.90;;
35372;SDS011;21476;51.652;7.852;2023-02-18T09:18:58;7.88;;;3.70;;
35372;SDS011;21476;51.652;7.852;2023-02-18T09:21:24;5.88;;;3.85;;
35372;SDS011;21476;51.652;7.852;2023-02-18T09:23:50;6.43;;;4.93;;
35372;SDS011;21476;51.652;7.852;2023-02-18T09:26:17;7.70;;;4.10;;
35372;SDS011;21476;51.652;7.852;2023-02-18T09:28:47;8.73;;;3.97;;
35372;SDS011;21476;51.652;7.852;2023-02-18T09:31:14;5.05;;;3.90;;
35372;SDS011;21476;51.652;7.852;2023-02-18T09:33:46;4.85;;;2.95;;
35372;SDS011;21476;51.652;7.852;2023-02-18T09:36:14;4.37;;;2.73;;
35372;SDS011;21476;51.652;7.852;2023-02-18T09:38:41;4.57;;;2.97;;
35372;SDS011;21476;51.652;7.852;2023-02-18T09:41:08;5.18;;;3.08;;
35372;SDS011;21476;51.652;7.852;2023-02-18T09:43:41;5.80;;;3.85;;
35372;SDS011;21476;51.652;7.852;2023-02-18T09:46:19;8.57;;;5.18;;
35372;SDS011;21476;51.652;7.852;2023-02-18T09:48:48;10.32;;;5.60;;
35372;SDS011;21476;51.652;7.852;2023-02-18T09:51:16;8.73;;;6.32;;
35372;SDS011;21476;51.652;7.852;2023-02-18T09:53:43;9.57;;;6.90;;
35372;SDS011;21476;51.652;7.852;2023-02-18T09:56:11;15.15;;;7.72;;
35372;SDS011;21476;51.652;7.852;2023-02-18T09:58:41;11.75;;;7.80;;
35372;SDS011;21476;51.652;7.852;2023-02-18T10:01:16;14.57;;;8.55;;
35372;SDS011;21476;51.652;7.852;2023-02-18T10:03:49;13.75;;;8.70;;
35372;SDS011;21476;51.652;7.852;2023-02-18T10:08:50;12.45;;;7.88;;
35372;SDS011;21476;51.652;7.852;2023-02-18T10:14:13;15.23;;;8.40;;
35372;SDS011;21476;51.652;7.852;2023-02-18T10:16:39;12.52;;;7.40;;
35372;SDS011;21476;51.652;7.852;2023-02-18T10:19:14;15.57;;;7.28;;
35372;SDS011;21476;51.652;7.852;2023-02-18T10:21:49;11.80;;;6.63;;
35372;SDS011;21476;51.652;7.852;2023-02-18T10:24:25;12.48;;;7.97;;
35372;SDS011;21476;51.652;7.852;2023-02-18T10:26:53;12.32;;;7.63;;
35372;SDS011;21476;51.652;7.852;2023-02-18T10:29:20;21.02;;;7.72;;
35372;SDS011;21476;51.652;7.852;2023-02-18T10:31:58;20.15;;;9.68;;
35372;SDS011;21476;51.652;7.852;2023-02-18T10:34:42;18.92;;;9.70;;
35372;SDS011;21476;51.652;7.852;2023-02-18T10:53:00;19.88;;;11.40;;
35372;SDS011;21476;51.652;7.852;2023-02-18T10:55:37;17.27;;;10.35;;
35372;SDS011;21476;51.652;7.852;2023-02-18T11:01:12;19.90;;;10.32;;
35372;SDS011;21476;51.652;7.852;2023-02-18T11:03:46;17.02;;;10.50;;
35372;SDS011;21476;51.652;7.852;2023-02-18T11:07:01;19.35;;;10.20;;
35372;SDS011;21476;51.652;7.852;2023-02-18T11:09:04;23.25;;;12.02;;
35372;SDS011;21476;51.652;7.852;2023-02-18T11:11:32;18.60;;;10.85;;
35372;SDS011;21476;51.652;7.852;2023-02-18T11:14:01;23.15;;;11.10;;
35372;SDS011;21476;51.652;7.852;2023-02-18T11:16:42;26.40;;;10.82;;
35372;SDS011;21476;51.652;7.852;2023-02-18T11:24:54;12.90;;;8.95;;
35372;SDS011;21476;51.652;7.852;2023-02-18T11:27:33;16.33;;;8.70;;
35372;SDS011;21476;51.652;7.852;2023-02-18T11:32:55;19.08;;;9.65;;
35372;SDS011;21476;51.652;7.852;2023-02-18T11:35:49;18.35;;;9.00;;
35372;SDS011;21476;51.652;7.852;2023-02-18T11:38:37;16.15;;;8.80;;
35372;SDS011;21476;51.652;7.852;2023-02-18T11:41:16;13.77;;;9.13;;
35372;SDS011;21476;51.652;7.852;2023-02-18T11:43:46;13.00;;;9.30;;
35372;SDS011;21476;51.652;7.852;2023-02-18T11:46:19;16.83;;;11.18;;
35372;SDS011;21476;51.652;7.852;2023-02-18T11:48:46;14.55;;;9.77;;
35372;SDS011;21476;51.652;7.852;2023-02-18T11:53:54;15.43;;;9.50;;
35372;SDS011;21476;51.652;7.852;2023-02-18T11:56:23;13.65;;;9.52;;
35372;SDS011;21476;51.652;7.852;2023-02-18T11:58:50;17.45;;;9.77;;
35372;SDS011;21476;51.652;7.852;2023-02-18T12:06:42;16.40;;;11.27;;
35372;SDS011;21476;51.652;7.852;2023-02-18T12:11:45;22.50;;;10.95;;
35372;SDS011;21476;51.652;7.852;2023-02-18T12:14:19;17.20;;;11.57;;
35372;SDS011;21476;51.652;7.852;2023-02-18T12:17:01;14.73;;;10.43;;
35372;SDS011;21476;51.652;7.852;2023-02-18T12:22:43;19.25;;;11.23;;
35372;SDS011;21476;51.652;7.852;2023-02-18T12:25:24;15.35;;;11.43;;
35372;SDS011;21476;51.652;7.852;2023-02-18T12:28:07;13.70;;;9.98;;
35372;SDS011;21476;51.652;7.852;2023-02-18T12:39:02;13.80;;;10.93;;
35372;SDS011;21476;51.652;7.852;2023-02-18T13:01:22;13.95;;;9.48;;
35372;SDS011;21476;51.652;7.852;2023-02-18T13:12:21;12.05;;;9.07;;
35372;SDS011;21476;51.652;7.852;2023-02-18T13:15:15;10.35;;;7.72;;
35372;SDS011;21476;51.652;7.852;2023-02-18T13:17:44;11.93;;;9.30;;
35372;SDS011;21476;51.652;7.852;2023-02-18T13:20:16;11.95;;;8.85;;
35372;SDS011;21476;51.652;7.852;2023-02-18T13:22:50;14.05;;;9.85;;
35372;SDS011;21476;51.652;7.852;2023-02-18T13:25:17;17.38;;;10.23;;
35372;SDS011;21476;51.652;7.852;2023-02-18T13:35:30;12.38;;;8.15;;
35372;SDS011;21476;51.652;7.852;2023-02-18T13:40:27;13.18;;;9.20;;
35372;SDS011;21476;51.652;7.852;2023-02-18T13:43:15;11.10;;;8.20;;
35372;SDS011;21476;51.652;7.852;2023-02-18T13:48:42;13.05;;;9.23;;
35372;SDS011;21476;51.652;7.852;2023-02-18T13:51:10;14.80;;;9.88;;
35372;SDS011;21476;51.652;7.852;2023-02-18T13:53:39;13.18;;;9.48;;
35372;SDS011;21476;51.652;7.852;2023-02-18T13:58:51;11.75;;;9.30;;
35372;SDS011;21476;51.652;7.852;2023-02-18T14:01:29;13.27;;;10.35;;
35372;SDS011;21476;51.652;7.852;2023-02-18T14:04:00;14.73;;;11.25;;
35372;SDS011;21476;51.652;7.852;2023-02-18T14:11:56;13.77;;;10.93;;
35372;SDS011;21476;51.652;7.852;2023-02-18T14:14:48;13.68;;;10.80;;
35372;SDS011;21476;51.652;7.852;2023-02-18T14:27:37;18.50;;;12.45;;
35372;SDS011;21476;51.652;7.852;2023-02-18T14:32:56;18.85;;;11.50;;
35372;SDS011;21476;51.652;7.852;2023-02-18T14:46:25;20.33;;;15.95;;
35372;SDS011;21476;51.652;7.852;2023-02-18T14:51:40;21.52;;;15.93;;
35372;SDS011;21476;51.652;7.852;2023-02-18T14:54:12;31.15;;;18.50;;
35372;SDS011;21476;51.652;7.852;2023-02-18T14:56:45;26.15;;;19.00;;
35372;SDS011;21476;51.652;7.852;2023-02-18T14:59:27;25.10;;;19.35;;
35372;SDS011;21476;51.652;7.852;2023-02-18T15:01:58;26.55;;;19.65;;
35372;SDS011;21476;51.652;7.852;2023-02-18T15:04:24;27.90;;;21.63;;
35372;SDS011;21476;51.652;7.852;2023-02-18T15:07:01;29.15;;;21.80;;
35372;SDS011;21476;51.652;7.852;2023-02-18T15:09:28;25.60;;;19.00;;
35372;SDS011;21476;51.652;7.852;2023-02-18T15:14:31;29.73;;;20.38;;
35372;SDS011;21476;51.652;7.852;2023-02-18T15:17:01;31.80;;;22.00;;
35372;SDS011;21476;51.652;7.852;2023-02-18T15:19:33;32.83;;;22.33;;
35372;SDS011;21476;51.652;7.852;2023-02-18T15:22:04;32.45;;;23.90;;
35372;SDS011;21476;51.652;7.852;2023-02-18T15:26:56;39.97;;;26.05;;
35372;SDS011;21476;51.652;7.852;2023-02-18T15:29:27;38.83;;;25.73;;
35372;SDS011;21476;51.652;7.852;2023-02-18T15:31:55;38.60;;;26.67;;
35372;SDS011;21476;51.652;7.852;2023-02-18T15:39:21;32.70;;;25.27;;
35372;SDS011;21476;51.652;7.852;2023-02-18T15:41:52;33.83;;;24.52;;
35372;SDS011;21476;51.652;7.852;2023-02-18T15:44:24;37.83;;;26.88;;
35372;SDS011;21476;51.652;7.852;2023-02-18T15:46:52;37.10;;;25.55;;
35372;SDS011;21476;51.652;7.852;2023-02-18T15:49:19;37.13;;;26.35;;
35372;SDS011;21476;51.652;7.852;2023-02-18T15:51:47;38.15;;;26.38;;
35372;SDS011;21476;51.652;7.852;2023-02-18T15:54:16;38.22;;;26.45;;
35372;SDS011;21476;51.652;7.852;2023-02-18T15:56:45;38.35;;;27.42;;
35372;SDS011;21476;51.652;7.852;2023-02-18T16:04:33;39.42;;;25.65;;
35372;SDS011;21476;51.652;7.852;2023-02-18T16:07:03;35.15;;;25.15;;
35372;SDS011;21476;51.652;7.852;2023-02-18T16:09:43;39.45;;;24.75;;
35372;SDS011;21476;51.652;7.852;2023-02-18T16:12:12;33.78;;;25.25;;
35372;SDS011;21476;51.652;7.852;2023-02-18T16:14:47;40.30;;;27.60;;
35372;SDS011;21476;51.652;7.852;2023-02-18T16:17:14;39.03;;;27.45;;
35372;SDS011;21476;51.652;7.852;2023-02-18T16:22:22;40.40;;;27.45;;
35372;SDS011;21476;51.652;7.852;2023-02-18T16:24:53;40.42;;;28.75;;
35372;SDS011;21476;51.652;7.852;2023-02-18T16:27:27;42.58;;;29.38;;
35372;SDS011;21476;51.652;7.852;2023-02-18T16:29:58;44.92;;;30.40;;
35372;SDS011;21476;51.652;7.852;2023-02-18T16:32:26;43.72;;;28.88;;
35372;SDS011;21476;51.652;7.852;2023-02-18T16:34:52;43.42;;;28.95;;
35372;SDS011;21476;51.652;7.852;2023-02-18T16:37:18;41.42;;;29.60;;
35372;SDS011;21476;51.652;7.852;2023-02-18T16:40:03;47.72;;;31.10;;
35372;SDS011;21476;51.652;7.852;2023-02-18T16:42:40;40.53;;;27.35;;
35372;SDS011;21476;51.652;7.852;2023-02-18T16:45:10;45.53;;;30.33;;
35372;SDS011;21476;51.652;7.852;2023-02-18T16:47:37;45.55;;;28.90;;
35372;SDS011;21476;51.652;7.852;2023-02-18T16:50:03;42.08;;;27.50;;
35372;SDS011;21476;51.652;7.852;2023-02-18T16:52:29;37.50;;;27.40;;
35372;SDS011;21476;51.652;7.852;2023-02-18T16:54:55;44.17;;;27.58;;
35372;SDS011;21476;51.652;7.852;2023-02-18T16:57:20;42.83;;;27.17;;
35372;SDS011;21476;51.652;7.852;2023-02-18T16:59:46;39.58;;;26.40;;
35372;SDS011;21476;51.652;7.852;2023-02-18T17:02:17;39.65;;;27.60;;
35372;SDS011;21476;51.652;7.852;2023-02-18T17:04:45;40.33;;;25.77;;
35372;SDS011;21476;51.652;7.852;2023-02-18T17:07:11;36.90;;;27.20;;
35372;SDS011;21476;51.652;7.852;2023-02-18T17:09:36;39.20;;;26.45;;
35372;SDS011;21476;51.652;7.852;2023-02-18T17:12:02;47.47;;;28.88;;
35372;SDS011;21476;51.652;7.852;2023-02-18T17:14:29;39.83;;;27.95;;
35372;SDS011;21476;51.652;7.852;2023-02-18T17:16:55;40.83;;;28.13;;
35372;SDS011;21476;51.652;7.852;2023-02-18T17:19:21;40.78;;;28.63;;
35372;SDS011;21476;51.652;7.852;2023-02-18T17:21:47;40.30;;;26.55;;
35372;SDS011;21476;51.652;7.852;2023-02-18T17:24:14;40.35;;;27.73;;
35372;SDS011;21476;51.652;7.852;2023-02-18T17:26:42;36.00;;;26.15;;
35372;SDS011;21476;51.652;7.852;2023-02-18T17:29:08;35.28;;;26.88;;
35372;SDS011;21476;51.652;7.852;2023-02-18T17:31:38;41.38;;;27.45;;
35372;SDS011;21476;51.652;7.852;2023-02-18T17:34:08;42.10;;;29.40;;
35372;SDS011;21476;51.652;7.852;2023-02-18T17:36:38;48.65;;;29.83;;
35372;SDS011;21476;51.652;7.852;2023-02-18T17:39:12;42.83;;;30.10;;
35372;SDS011;21476;51.652;7.852;2023-02-18T17:41:39;46.67;;;32.67;;
35372;SDS011;21476;51.652;7.852;2023-02-18T17:44:15;43.42;;;29.15;;